Barking Sands Airport Kekaha US
ICAO: PHBK
IATA:
Category: Medium
Scheduled Services:

Elevation: 23 ft
TransAlt. 18000 ft.

Airport Communications:
HONOLULU CNTR:126.5
RANGE OUTRIDER:32.285
TWR:126.2
UNICOM:122.8

PHBK Zoom In..

If you have problems with the map follow the link
https://www.worldairports.se/pages/airport.php?
ICAO=PHBK

Runways:

(A) RW 16 length 6002 ft width 146 ft
---- / hdg 160

(B) RW 34 length 6002 ft width 146 ft
---- / hdg 340

Location; PHBK
Day. 14 / Time. 10.56 Zulu
* Altimeter: 30.05
* Temperature: 21° c. 69.8°f.
* Wind from: 080° Speed 04 kn.
Dewpoint: 17° c.
Visibility: 10 Statute Miles.
Clouds: Clear (automated report).

PHBK 141056Z AUTO 08004KT 10SM CLR 21/17 A3005 RMK AO2 SLP176 T02110167


Wind From 080°
Speed 04 kn.

 
 
jpsmedia.com for Web Design worldairports.se 2018   terms of use